createdAt,value
2018-01-17T00:02:05.898Z,13.80
2018-01-17T00:04:33.249Z,14.43
2018-01-17T00:17:59.904Z,14.97
2018-01-17T00:20:27.276Z,14.50
2018-01-17T00:22:54.684Z,11.57
2018-01-17T00:25:22.067Z,18.27
2018-01-17T00:27:49.454Z,14.30
2018-01-17T00:30:16.828Z,14.83
2018-01-17T00:32:44.200Z,15.53
2018-01-17T00:35:11.606Z,18.67
2018-01-17T00:37:39.033Z,14.57
2018-01-17T00:40:06.444Z,12.83
2018-01-17T00:42:34.034Z,15.00
2018-01-17T00:45:01.593Z,14.97
2018-01-17T00:47:29.153Z,16.27
2018-01-17T00:49:56.548Z,16.13
2018-01-17T00:52:24.104Z,13.00
2018-01-17T00:54:51.728Z,15.67
2018-01-17T00:57:19.292Z,21.13
2018-01-17T00:59:46.847Z,11.90
2018-01-17T01:02:14.509Z,19.73
2018-01-17T01:04:42.124Z,13.67
2018-01-17T01:07:09.628Z,12.63
2018-01-17T01:09:37.191Z,14.03
2018-01-17T01:12:04.747Z,14.00
2018-01-17T01:14:32.180Z,14.40
2018-01-17T01:16:59.661Z,14.13
2018-01-17T01:19:27.221Z,13.80
2018-01-17T01:21:54.713Z,14.73
2018-01-17T01:24:22.237Z,14.87
2018-01-17T01:26:50.001Z,14.03
2018-01-17T01:29:17.562Z,18.53
2018-01-17T01:31:45.063Z,16.87
2018-01-17T01:34:12.782Z,13.53
2018-01-17T01:36:40.342Z,18.00
2018-01-17T01:39:07.899Z,15.83
2018-01-17T01:41:35.396Z,14.50
2018-01-17T01:44:02.917Z,15.83
2018-01-17T01:46:30.478Z,17.23
2018-01-17T01:49:01.006Z,17.80
2018-01-17T01:51:28.464Z,16.73
2018-01-17T01:53:56.022Z,15.50
2018-01-17T01:56:23.581Z,16.63
2018-01-17T01:58:51.140Z,14.90
2018-01-17T02:01:18.700Z,17.13
2018-01-17T02:03:46.260Z,19.33
2018-01-17T02:06:13.819Z,14.67
2018-01-17T02:08:41.248Z,13.97
2018-01-17T02:11:08.668Z,12.70
2018-01-17T02:13:36.190Z,13.63
2018-01-17T02:16:03.750Z,13.53
2018-01-17T02:18:31.309Z,15.87
2018-01-17T02:20:58.868Z,12.53
2018-01-17T02:23:26.428Z,16.23
2018-01-17T02:25:53.987Z,13.80
2018-01-17T02:28:21.547Z,19.17
2018-01-17T02:30:49.107Z,14.23
2018-01-17T02:33:16.665Z,15.43
2018-01-17T02:35:44.227Z,18.97
2018-01-17T02:38:11.786Z,18.60
2018-01-17T02:40:40.000Z,16.87
2018-01-17T02:43:07.723Z,17.20
2018-01-17T02:45:35.282Z,15.43
2018-01-17T02:48:02.844Z,12.37
2018-01-17T02:50:30.744Z,14.53
2018-01-17T02:52:58.267Z,12.57
2018-01-17T02:55:25.729Z,16.07
2018-01-17T02:57:53.283Z,17.33
2018-01-17T03:00:20.843Z,17.77
2018-01-17T03:02:48.336Z,16.90
2018-01-17T03:05:15.764Z,17.57
2018-01-17T03:07:43.316Z,18.77
2018-01-17T03:10:11.080Z,18.50
2018-01-17T03:12:39.151Z,22.60
2018-01-17T03:15:06.712Z,16.07
2018-01-17T03:17:34.272Z,20.70
2018-01-17T03:20:01.944Z,20.83
2018-01-17T03:22:29.347Z,21.50
2018-01-17T03:24:56.845Z,15.00
2018-01-17T03:27:24.341Z,16.40
2018-01-17T03:29:51.863Z,15.00
2018-01-17T03:32:19.422Z,20.20
2018-01-17T03:34:47.120Z,14.60
2018-01-17T03:37:14.643Z,18.30
2018-01-17T03:39:42.919Z,14.40
2018-01-17T03:42:10.478Z,19.60
2018-01-17T03:44:38.038Z,15.90
2018-01-17T03:47:05.598Z,20.47
2018-01-17T03:49:33.008Z,22.20
2018-01-17T03:52:00.614Z,19.63
2018-01-17T03:54:28.173Z,16.13
2018-01-17T03:56:55.632Z,16.50
2018-01-17T03:59:23.191Z,17.13
2018-01-17T04:01:50.749Z,15.10
2018-01-17T04:04:18.148Z,17.63
2018-01-17T04:06:45.600Z,20.00
2018-01-17T04:09:13.121Z,15.90
2018-01-17T04:11:40.578Z,12.93
2018-01-17T04:14:08.137Z,15.13
2018-01-17T04:16:35.640Z,13.73
2018-01-17T04:19:03.153Z,14.73
2018-01-17T04:21:30.905Z,12.33
2018-01-17T04:23:58.481Z,17.43
2018-01-17T04:26:25.908Z,17.30
2018-01-17T04:28:53.494Z,19.03
2018-01-17T04:31:20.985Z,11.27
2018-01-17T04:33:48.556Z,15.40
2018-01-17T04:36:16.172Z,12.93
2018-01-17T04:38:43.668Z,16.13
2018-01-17T04:41:11.290Z,11.80
2018-01-17T04:43:38.953Z,12.53
2018-01-17T04:46:06.614Z,15.83
2018-01-17T04:48:34.044Z,20.70
2018-01-17T04:51:01.576Z,12.17
2018-01-17T04:53:29.088Z,12.40
2018-01-17T04:55:56.646Z,15.33
2018-01-17T04:58:24.206Z,17.10
2018-01-17T05:00:51.700Z,15.77
2018-01-17T05:03:19.324Z,11.47
2018-01-17T05:05:46.886Z,14.67
2018-01-17T05:08:14.445Z,8.77
2018-01-17T05:10:41.912Z,10.73
2018-01-17T05:13:09.460Z,15.70
2018-01-17T05:15:36.864Z,10.13
2018-01-17T05:18:04.268Z,13.00
2018-01-17T05:20:31.742Z,15.03
2018-01-17T05:22:59.287Z,10.17
2018-01-17T05:25:26.746Z,15.40
2018-01-17T05:27:54.305Z,12.50
2018-01-17T05:30:21.703Z,14.70
2018-01-17T05:32:49.220Z,11.13
2018-01-17T05:35:16.723Z,19.07
2018-01-17T05:37:44.168Z,13.40
2018-01-17T05:40:12.820Z,20.73
2018-01-17T05:42:40.312Z,14.67
2018-01-17T05:45:07.837Z,17.93
2018-01-17T05:47:35.396Z,16.27
2018-01-17T05:50:02.961Z,15.10
2018-01-17T05:52:30.516Z,16.17
2018-01-17T05:54:58.074Z,14.33
2018-01-17T05:57:25.633Z,15.20
2018-01-17T05:59:53.131Z,15.07
2018-01-17T06:02:20.657Z,15.53
2018-01-17T06:04:48.108Z,17.63
2018-01-17T06:07:18.924Z,23.63
2018-01-17T06:09:46.399Z,16.20
2018-01-17T06:12:14.164Z,16.00
2018-01-17T06:14:41.656Z,17.50
2018-01-17T06:17:09.180Z,19.20
2018-01-17T06:19:36.740Z,14.50
2018-01-17T06:22:04.302Z,20.00
2018-01-17T06:24:31.859Z,17.93
2018-01-17T06:26:59.521Z,19.13
2018-01-17T06:29:27.080Z,16.90
2018-01-17T06:31:54.639Z,15.30
2018-01-17T06:34:22.131Z,19.60
2018-01-17T06:36:49.603Z,16.77
2018-01-17T06:39:17.318Z,20.87
2018-01-17T06:41:44.836Z,16.83
2018-01-17T06:44:12.603Z,24.63
2018-01-17T06:46:39.996Z,21.90
2018-01-17T06:49:07.560Z,24.53
2018-01-17T06:51:34.958Z,20.70
2018-01-17T06:54:02.676Z,15.07
2018-01-17T06:56:30.235Z,20.33
2018-01-17T06:58:57.795Z,21.80
2018-01-17T07:01:25.243Z,24.67
2018-01-17T07:03:52.642Z,22.63
2018-01-17T07:06:20.267Z,24.90
2018-01-17T07:08:47.826Z,20.97
2018-01-17T07:11:15.283Z,23.70
2018-01-17T07:13:42.728Z,20.13
2018-01-17T07:16:10.301Z,20.97
2018-01-17T07:18:37.859Z,24.00
2018-01-17T07:21:05.522Z,29.77
2018-01-17T07:23:32.960Z,24.07
2018-01-17T07:26:00.497Z,23.67
2018-01-17T07:28:28.097Z,19.50
2018-01-17T07:30:55.527Z,25.40
2018-01-17T07:33:22.947Z,38.30
2018-01-17T07:35:50.392Z,33.10
2018-01-17T07:38:17.822Z,22.30
2018-01-17T07:40:45.234Z,20.43
2018-01-17T07:43:12.839Z,26.20
2018-01-17T07:45:40.400Z,21.93
2018-01-17T07:48:07.892Z,25.07
2018-01-17T07:50:35.416Z,23.30
2018-01-17T07:53:03.012Z,23.20
2018-01-17T07:55:30.534Z,25.03
2018-01-17T07:57:58.093Z,24.17
2018-01-17T08:00:25.595Z,27.70
2018-01-17T08:02:53.110Z,26.20
2018-01-17T08:05:20.669Z,25.53
2018-01-17T08:07:48.230Z,29.93
2018-01-17T08:10:15.788Z,25.57
2018-01-17T08:12:43.347Z,23.77
2018-01-17T08:15:10.751Z,31.03
2018-01-17T08:17:38.372Z,25.47
2018-01-17T08:20:05.924Z,24.37
2018-01-17T08:22:33.483Z,26.77
2018-01-17T08:25:01.042Z,26.90
2018-01-17T08:27:28.605Z,28.67
2018-01-17T08:29:56.161Z,29.20
2018-01-17T08:32:23.721Z,29.10
2018-01-17T08:34:51.188Z,23.87
2018-01-17T08:37:18.737Z,24.47
2018-01-17T08:39:46.296Z,23.33
2018-01-17T08:42:13.748Z,28.20
2018-01-17T08:44:41.188Z,28.30
2018-01-17T08:47:12.661Z,29.17
2018-01-17T08:49:40.222Z,23.00
2018-01-17T08:52:07.781Z,25.50
2018-01-17T08:54:35.544Z,29.80
2018-01-17T08:57:03.039Z,24.07
2018-01-17T08:59:30.493Z,24.37
2018-01-17T09:01:58.017Z,22.87
2018-01-17T09:04:25.580Z,22.63
2018-01-17T09:06:53.137Z,30.93
2018-01-17T09:09:20.630Z,20.23
2018-01-17T09:11:48.257Z,25.80
2018-01-17T09:14:15.916Z,22.03
2018-01-17T09:16:43.383Z,22.30
2018-01-17T09:19:10.868Z,26.07
2018-01-17T09:21:38.492Z,24.10
2018-01-17T09:24:06.052Z,30.30
2018-01-17T09:26:33.543Z,25.63
2018-01-17T09:29:01.111Z,26.13
2018-01-17T09:31:28.730Z,25.13
2018-01-17T09:33:56.188Z,21.83
2018-01-17T09:36:23.748Z,23.27
2018-01-17T09:38:51.246Z,19.23
2018-01-17T09:41:18.764Z,24.33
2018-01-17T09:43:46.324Z,22.07
2018-01-17T09:46:13.819Z,20.77
2018-01-17T09:48:41.280Z,21.10
2018-01-17T09:51:08.796Z,22.30
2018-01-17T09:53:36.357Z,22.13
2018-01-17T09:56:03.916Z,17.50
2018-01-17T09:58:31.474Z,11.43
2018-01-17T10:00:58.931Z,17.83
2018-01-17T10:03:26.435Z,17.30
2018-01-17T10:05:53.948Z,20.23
2018-01-17T10:08:21.405Z,19.20
2018-01-17T10:10:48.965Z,24.90
2018-01-17T10:13:16.728Z,18.40
2018-01-17T10:15:44.233Z,19.30
2018-01-17T10:18:11.745Z,14.70
2018-01-17T10:20:39.305Z,17.13
2018-01-17T10:23:07.376Z,17.90
2018-01-17T10:25:34.935Z,20.97
2018-01-17T10:28:02.432Z,22.03
2018-01-17T10:30:29.952Z,16.33
2018-01-17T10:32:57.443Z,21.30
2018-01-17T10:35:24.969Z,16.40
2018-01-17T10:37:52.527Z,18.47
2018-01-17T10:40:20.088Z,13.50
2018-01-17T10:42:47.646Z,12.87
2018-01-17T10:45:15.206Z,19.87
2018-01-17T10:47:42.766Z,13.73
2018-01-17T10:50:10.435Z,17.60
2018-01-17T10:52:38.000Z,12.90
2018-01-17T10:55:05.547Z,17.80
2018-01-17T10:57:33.053Z,12.77
2018-01-17T11:00:00.664Z,16.50
2018-01-17T11:02:28.223Z,17.60
2018-01-17T11:04:55.886Z,13.87
2018-01-17T11:07:23.384Z,15.40
2018-01-17T11:09:50.905Z,14.83
2018-01-17T11:12:18.391Z,13.57
2018-01-17T11:14:45.800Z,17.23
2018-01-17T11:17:13.274Z,16.13
2018-01-17T11:19:40.835Z,11.13
2018-01-17T11:22:08.234Z,9.80
2018-01-17T11:24:35.898Z,10.80
2018-01-17T11:27:03.411Z,8.97
2018-01-17T11:29:30.969Z,13.17
2018-01-17T11:31:58.528Z,10.03
2018-01-17T11:34:26.040Z,12.73
2018-01-17T11:36:53.649Z,11.03
2018-01-17T11:39:21.060Z,11.23
2018-01-17T11:41:48.561Z,12.10
2018-01-17T11:44:16.123Z,14.20
2018-01-17T11:46:44.089Z,17.87
2018-01-17T11:49:11.581Z,13.90
2018-01-17T11:51:39.041Z,11.30
2018-01-17T11:54:06.596Z,11.57
2018-01-17T11:56:34.040Z,11.97
2018-01-17T11:59:01.512Z,13.87
2018-01-17T12:01:29.063Z,14.23
2018-01-17T12:03:56.800Z,9.73
2018-01-17T12:06:24.373Z,15.30
2018-01-17T12:08:51.919Z,12.70
2018-01-17T12:11:19.479Z,14.83
2018-01-17T12:13:46.973Z,14.03
2018-01-17T12:16:14.597Z,12.93
2018-01-17T12:18:42.259Z,11.10
2018-01-17T12:21:09.691Z,12.93
2018-01-17T12:23:37.275Z,14.53
2018-01-17T12:26:04.769Z,11.37
2018-01-17T12:28:32.228Z,14.10
2018-01-17T12:30:59.752Z,15.57
2018-01-17T12:33:27.310Z,17.10
2018-01-17T12:35:54.869Z,19.23
2018-01-17T12:38:23.248Z,13.50
2018-01-17T12:40:50.844Z,13.53
2018-01-17T12:43:18.468Z,11.70
2018-01-17T12:45:46.031Z,15.60
2018-01-17T12:48:13.432Z,15.07
2018-01-17T12:50:41.149Z,18.90
2018-01-17T12:53:08.619Z,18.73
2018-01-17T12:55:36.112Z,16.07
2018-01-17T12:58:03.528Z,15.60
2018-01-17T13:00:31.077Z,14.27
2018-01-17T13:02:58.572Z,15.37
2018-01-17T13:05:26.196Z,15.83
2018-01-17T13:07:53.758Z,19.63
2018-01-17T13:10:21.315Z,15.60
2018-01-17T13:12:48.812Z,19.10
2018-01-17T13:15:16.330Z,18.97
2018-01-17T13:17:43.889Z,16.83
2018-01-17T13:20:11.492Z,21.60
2018-01-17T13:22:39.111Z,18.00
2018-01-17T13:25:06.604Z,29.30
2018-01-17T13:27:34.247Z,20.13
2018-01-17T13:30:01.789Z,16.00
2018-01-17T13:32:29.349Z,17.03
2018-01-17T13:34:56.908Z,28.13
2018-01-17T13:37:24.467Z,19.10
2018-01-17T13:39:52.027Z,19.70
2018-01-17T13:42:19.588Z,19.37
2018-01-17T13:44:47.248Z,19.07
2018-01-17T13:47:14.809Z,24.13
2018-01-17T13:49:42.301Z,23.07
2018-01-17T13:52:09.926Z,18.17
2018-01-17T13:54:37.486Z,20.67
2018-01-17T13:57:04.987Z,27.37
2018-01-17T13:59:32.502Z,25.83
2018-01-17T14:02:00.062Z,22.97
2018-01-17T14:04:27.621Z,27.80
2018-01-17T14:06:55.180Z,30.70
2018-01-17T14:09:22.676Z,20.83
2018-01-17T14:11:50.080Z,27.00
2018-01-17T14:14:17.654Z,21.10
2018-01-17T14:16:45.096Z,24.87
2018-01-17T14:19:12.671Z,31.00
2018-01-17T14:21:40.231Z,26.00
2018-01-17T14:24:07.790Z,29.83
2018-01-17T14:26:35.348Z,20.40
2018-01-17T14:29:02.909Z,24.43
2018-01-17T14:31:30.471Z,19.50
2018-01-17T14:33:57.965Z,22.00
2018-01-17T14:36:25.587Z,21.53
2018-01-17T14:38:53.145Z,17.90
2018-01-17T14:41:20.582Z,15.30
2018-01-17T14:43:48.163Z,16.37
2018-01-17T14:46:15.723Z,14.63
2018-01-17T14:48:43.281Z,17.33
2018-01-17T14:51:10.979Z,14.10
2018-01-17T14:53:38.502Z,13.60
2018-01-17T14:56:06.063Z,14.20
2018-01-17T14:58:33.621Z,13.83
2018-01-17T15:01:01.124Z,11.37
2018-01-17T15:03:28.578Z,15.57
2018-01-17T15:05:56.025Z,9.43
2018-01-17T15:08:23.493Z,10.20
2018-01-17T15:10:50.947Z,12.83
2018-01-17T15:13:18.465Z,9.17
2018-01-17T15:15:45.864Z,17.17
2018-01-17T15:18:14.001Z,11.83
2018-01-17T15:20:41.554Z,12.60
2018-01-17T15:23:09.049Z,7.10
2018-01-17T15:25:36.570Z,9.00
2018-01-17T15:28:03.977Z,11.50
2018-01-17T15:30:31.586Z,16.57
2018-01-17T15:32:58.988Z,11.40
2018-01-17T15:35:26.552Z,11.97
2018-01-17T15:37:54.163Z,12.27
2018-01-17T15:40:21.722Z,8.23
2018-01-17T15:42:49.291Z,9.83
2018-01-17T15:45:16.844Z,8.73
2018-01-17T15:47:44.331Z,10.57
2018-01-17T15:50:13.294Z,12.23
2018-01-17T15:52:40.852Z,12.33
2018-01-17T15:55:08.411Z,11.90
2018-01-17T15:57:36.072Z,8.80
2018-01-17T16:00:03.564Z,9.90
2018-01-17T16:02:31.025Z,9.10
2018-01-17T16:04:58.546Z,11.57
2018-01-17T16:07:26.040Z,10.80
2018-01-17T16:09:53.439Z,13.60
2018-01-17T16:12:21.020Z,11.67
2018-01-17T16:14:48.784Z,11.17
2018-01-17T16:17:16.344Z,11.63
2018-01-17T16:19:43.906Z,10.57
2018-01-17T16:22:11.353Z,14.63
2018-01-17T16:24:38.760Z,9.60
2018-01-17T16:27:06.151Z,15.50
2018-01-17T16:29:33.729Z,12.30
2018-01-17T16:32:01.224Z,18.57
2018-01-17T16:34:28.717Z,14.67
2018-01-17T16:36:56.408Z,13.30
2018-01-17T16:39:23.967Z,17.00
2018-01-17T16:41:51.526Z,19.80
2018-01-17T16:44:19.020Z,19.03
2018-01-17T16:46:46.585Z,14.47
2018-01-17T16:49:14.103Z,16.50
2018-01-17T16:51:41.662Z,17.20
2018-01-17T16:54:09.152Z,17.50
2018-01-17T16:56:36.612Z,18.53
2018-01-17T16:59:04.180Z,11.33
2018-01-17T17:01:31.693Z,13.80
2018-01-17T17:03:59.157Z,17.00
2018-01-17T17:06:26.713Z,10.40
2018-01-17T17:08:54.272Z,13.50
2018-01-17T17:11:21.832Z,14.13
2018-01-17T17:13:49.391Z,10.30
2018-01-17T17:16:16.951Z,13.10
2018-01-17T17:18:44.448Z,16.23
2018-01-17T17:21:11.965Z,11.40
2018-01-17T17:23:39.475Z,9.93
2018-01-17T17:26:07.187Z,13.33
2018-01-17T17:28:34.692Z,12.93
2018-01-17T17:31:02.253Z,13.77
2018-01-17T17:33:29.761Z,10.43
2018-01-17T17:35:58.052Z,12.33
2018-01-17T17:38:25.456Z,17.13
2018-01-17T17:40:53.002Z,9.83
2018-01-17T17:43:20.613Z,13.50
2018-01-17T17:45:48.174Z,9.90
2018-01-17T17:48:15.667Z,9.30
2018-01-17T17:50:44.316Z,14.90
2018-01-17T17:53:13.609Z,10.47
2018-01-17T17:55:42.501Z,18.70
2018-01-17T17:58:11.148Z,13.33
2018-01-17T18:00:39.867Z,11.80
2018-01-17T18:03:08.053Z,21.83
2018-01-17T18:05:36.855Z,13.90
2018-01-17T18:08:04.449Z,9.23
2018-01-17T18:10:31.907Z,10.77
2018-01-17T18:12:59.417Z,9.20
2018-01-17T18:15:26.976Z,7.57
2018-01-17T18:17:54.492Z,13.03
2018-01-17T18:20:21.992Z,8.40
2018-01-17T18:22:49.552Z,8.10
2018-01-17T18:25:17.044Z,15.60
2018-01-17T18:27:44.573Z,9.23
2018-01-17T18:30:12.128Z,10.30
2018-01-17T18:32:39.619Z,13.50
2018-01-17T18:35:07.145Z,13.07
2018-01-17T18:37:34.602Z,14.33
2018-01-17T18:40:02.096Z,11.30
2018-01-17T18:42:29.542Z,11.50
2018-01-17T18:44:57.177Z,19.70
2018-01-17T18:47:24.736Z,12.40
2018-01-17T18:49:52.296Z,11.83
2018-01-17T18:52:19.855Z,14.73
2018-01-17T18:54:47.296Z,15.07
2018-01-17T18:57:14.872Z,12.37
2018-01-17T18:59:42.330Z,22.10
2018-01-17T19:02:09.821Z,14.17
2018-01-17T19:04:37.346Z,11.90
2018-01-17T19:07:04.803Z,12.70
2018-01-17T19:09:32.300Z,17.93
2018-01-17T19:11:59.824Z,20.27
2018-01-17T19:14:27.379Z,18.50
2018-01-17T19:16:54.873Z,14.97
2018-01-17T19:19:22.394Z,17.20
2018-01-17T19:21:49.954Z,18.50
2018-01-17T19:24:18.428Z,15.67
2018-01-17T19:26:45.831Z,17.37
2018-01-17T19:29:13.352Z,27.20
2018-01-17T19:31:40.913Z,18.70
2018-01-17T19:34:08.470Z,23.37
2018-01-17T19:36:36.029Z,25.13
2018-01-17T19:39:03.587Z,21.20
2018-01-17T19:41:31.249Z,19.80
2018-01-17T19:43:58.645Z,18.50
2018-01-17T19:46:26.203Z,19.20
2018-01-17T19:48:53.645Z,22.57
2018-01-17T19:51:21.112Z,17.87
2018-01-17T19:53:48.637Z,20.33
2018-01-17T19:56:16.196Z,23.93
2018-01-17T19:58:43.756Z,20.70
2018-01-17T20:01:11.315Z,16.60
2018-01-17T20:03:38.784Z,18.43
2018-01-17T20:06:06.331Z,22.60
2018-01-17T20:08:33.736Z,23.27
2018-01-17T20:11:01.450Z,22.73
2018-01-17T20:13:29.018Z,21.20
2018-01-17T20:15:56.504Z,16.20
2018-01-17T20:18:24.026Z,20.67
2018-01-17T20:20:51.709Z,21.93
2018-01-17T20:23:19.451Z,23.43
2018-01-17T20:25:47.114Z,20.37
2018-01-17T20:28:14.715Z,26.00
2018-01-17T20:30:42.287Z,19.50
2018-01-17T20:33:09.950Z,19.70
2018-01-17T20:35:37.659Z,21.60
2018-01-17T20:38:05.152Z,17.83
2018-01-17T20:40:33.085Z,18.47
2018-01-17T20:43:00.646Z,16.30
2018-01-17T20:45:28.233Z,18.13
2018-01-17T20:47:55.866Z,17.37
2018-01-17T20:50:23.360Z,15.57
2018-01-17T20:52:50.987Z,16.90
2018-01-17T20:55:18.649Z,23.77
2018-01-17T20:57:46.253Z,16.93
2018-01-17T21:00:13.806Z,18.50
2018-01-17T21:02:41.324Z,17.27
2018-01-17T21:05:08.768Z,15.27
2018-01-17T21:07:36.276Z,18.23
2018-01-17T21:10:03.806Z,19.23
2018-01-17T21:12:31.293Z,16.20
2018-01-17T21:14:59.022Z,18.00
2018-01-17T21:17:26.626Z,19.17
2018-01-17T21:19:54.242Z,18.57
2018-01-17T21:22:21.804Z,13.73
2018-01-17T21:24:49.358Z,15.10
2018-01-17T21:27:16.852Z,13.77
2018-01-17T21:29:44.376Z,18.80
2018-01-17T21:32:11.934Z,18.00
2018-01-17T21:34:39.495Z,16.47
2018-01-17T21:37:07.056Z,18.00
2018-01-17T21:39:34.617Z,16.10
2018-01-17T21:42:02.204Z,16.50
2018-01-17T21:44:35.415Z,16.77
2018-01-17T21:47:03.051Z,15.20
2018-01-17T21:49:30.688Z,14.77
2018-01-17T21:51:58.189Z,16.60
2018-01-17T21:54:25.704Z,16.37
2018-01-17T21:56:53.165Z,15.80
2018-01-17T21:59:20.720Z,12.53
2018-01-17T22:01:48.229Z,15.40
2018-01-17T22:04:15.663Z,15.40
2018-01-17T22:06:43.128Z,12.33
2018-01-17T22:09:10.650Z,13.30
2018-01-17T22:11:38.124Z,12.90
2018-01-17T22:14:05.611Z,16.23
2018-01-17T22:16:33.124Z,18.03
2018-01-17T22:19:00.647Z,18.63
2018-01-17T22:21:28.143Z,11.00
2018-01-17T22:23:55.701Z,13.90
2018-01-17T22:26:23.260Z,11.57
2018-01-17T22:28:50.764Z,12.97
2018-01-17T22:31:18.207Z,16.33
2018-01-17T22:33:45.732Z,12.90
2018-01-17T22:36:13.292Z,9.67
2018-01-17T22:38:40.852Z,11.53
2018-01-17T22:41:08.344Z,9.93
2018-01-17T22:43:35.868Z,9.70
2018-01-17T22:46:03.427Z,9.87
2018-01-17T22:48:30.988Z,8.67
2018-01-17T22:50:58.389Z,12.07
2018-01-17T22:53:26.004Z,10.03
2018-01-17T22:55:53.562Z,10.50
2018-01-17T22:58:21.123Z,10.47
2018-01-17T23:00:48.888Z,14.00
2018-01-17T23:03:16.445Z,8.80
2018-01-17T23:05:43.903Z,8.53
2018-01-17T23:08:11.335Z,8.47
2018-01-17T23:10:38.864Z,9.23
2018-01-17T23:13:06.312Z,11.53
2018-01-17T23:15:33.766Z,9.23
2018-01-17T23:18:01.222Z,9.67
2018-01-17T23:20:28.679Z,7.73
2018-01-17T23:22:56.137Z,7.53
2018-01-17T23:25:23.764Z,8.30
2018-01-17T23:27:51.255Z,7.90
2018-01-17T23:30:18.888Z,10.17
2018-01-17T23:32:46.292Z,6.80
2018-01-17T23:35:13.797Z,5.20
2018-01-17T23:37:41.289Z,6.97
2018-01-17T23:40:08.712Z,5.80
2018-01-17T23:42:36.271Z,5.60
2018-01-17T23:45:04.698Z,6.17
2018-01-17T23:47:32.142Z,4.60
2018-01-17T23:49:59.665Z,4.90
2018-01-17T23:52:27.532Z,5.77
2018-01-17T23:54:55.025Z,7.97
2018-01-17T23:57:23.382Z,8.20
2018-01-17T23:59:50.927Z,6.20
